createdAt,value
2022-09-30T00:00:36.585Z,11.23
2022-09-30T00:06:09.066Z,11.27
2022-09-30T00:11:40.056Z,11.28
2022-09-30T00:17:11.790Z,11.26
2022-09-30T00:22:43.535Z,11.24
2022-09-30T00:28:15.179Z,11.25
2022-09-30T00:33:53.318Z,11.25
2022-09-30T00:39:25.030Z,11.27
2022-09-30T00:44:56.755Z,11.18
2022-09-30T00:50:28.481Z,11.24
2022-09-30T00:56:00.187Z,11.12
2022-09-30T01:01:31.979Z,11.22
2022-09-30T01:07:03.842Z,11.28
2022-09-30T01:12:35.399Z,11.32
2022-09-30T01:18:07.154Z,11.29
2022-09-30T01:23:38.858Z,11.34
2022-09-30T01:29:10.602Z,11.35
2022-09-30T01:34:46.727Z,11.32
2022-09-30T01:40:18.522Z,11.35
2022-09-30T01:45:50.498Z,11.33
2022-09-30T01:51:21.927Z,11.3
2022-09-30T01:56:53.642Z,11.36
2022-09-30T02:02:25.493Z,11.27
2022-09-30T02:07:57.134Z,11.34
2022-09-30T02:13:28.812Z,11.36
2022-09-30T02:19:00.514Z,11.38
2022-09-30T02:24:32.295Z,11.42
2022-09-30T02:30:04.061Z,11.38
2022-09-30T02:35:42.106Z,11.3
2022-09-30T02:41:13.829Z,11.3
2022-09-30T02:46:45.688Z,11.27
2022-09-30T02:52:17.250Z,11.14
2022-09-30T02:57:48.985Z,11.11
2022-09-30T03:03:20.752Z,10.96
2022-09-30T03:08:52.509Z,10.89
2022-09-30T03:14:24.222Z,10.88
2022-09-30T03:19:55.925Z,10.77
2022-09-30T03:25:27.644Z,10.75
2022-09-30T03:30:59.483Z,10.83
2022-09-30T03:36:35.516Z,10.82
2022-09-30T03:42:07.238Z,10.79
2022-09-30T03:47:38.937Z,10.77
2022-09-30T03:53:10.670Z,10.81
2022-09-30T03:58:42.414Z,10.81
2022-09-30T04:04:14.110Z,10.82
2022-09-30T04:09:45.939Z,10.91
2022-09-30T04:15:17.582Z,10.9
2022-09-30T04:20:49.255Z,10.91
2022-09-30T04:26:21.301Z,10.83
2022-09-30T04:31:52.799Z,10.8
2022-09-30T04:37:30.802Z,10.75
2022-09-30T04:43:02.637Z,10.76
2022-09-30T04:48:34.278Z,10.7
2022-09-30T04:54:06.019Z,10.55
2022-09-30T04:59:37.749Z,10.46
2022-09-30T05:05:09.458Z,10.5
2022-09-30T05:10:41.222Z,10.61
2022-09-30T05:16:13.017Z,10.66
2022-09-30T05:21:44.603Z,10.65
2022-09-30T05:27:16.299Z,10.72
2022-09-30T05:32:48.124Z,10.58
2022-09-30T05:38:26.231Z,10.62
2022-09-30T05:43:57.935Z,10.62
2022-09-30T05:49:29.630Z,10.57
2022-09-30T05:55:01.386Z,10.63
2022-09-30T06:00:33.123Z,10.62
2022-09-30T06:06:04.846Z,10.62
2022-09-30T06:11:36.532Z,10.62
2022-09-30T06:17:08.644Z,10.54
2022-09-30T06:22:40.227Z,10.8
2022-09-30T06:28:11.708Z,10.84
2022-09-30T06:33:43.466Z,10.99
2022-09-30T06:39:21.617Z,11.13
2022-09-30T06:44:53.660Z,11.36
2022-09-30T06:50:25.807Z,11.39
2022-09-30T06:55:56.744Z,11.45
2022-09-30T07:01:28.538Z,11.77
2022-09-30T07:07:00.208Z,11.9
2022-09-30T07:12:31.974Z,11.94
2022-09-30T07:18:03.651Z,11.88
2022-09-30T07:23:35.373Z,11.99
2022-09-30T07:29:07.255Z,12.06
2022-09-30T07:34:38.838Z,12.26
2022-09-30T07:40:14.992Z,12.11
2022-09-30T07:45:46.778Z,11.83
2022-09-30T07:51:18.394Z,11.94
2022-09-30T07:57:10.013Z,11.98
2022-09-30T08:02:22.030Z,12.18
2022-09-30T08:07:53.622Z,11.93
2022-09-30T08:13:25.294Z,11.92
2022-09-30T08:18:56.982Z,12.14
2022-09-30T08:24:28.718Z,12.13
2022-09-30T08:30:03.691Z,12.4
2022-09-30T08:35:32.162Z,12.58
2022-09-30T08:41:08.653Z,12.56
2022-09-30T08:46:40.034Z,12.7
2022-09-30T08:52:12.902Z,12.68
2022-09-30T08:57:47.091Z,13.44
2022-09-30T09:03:15.166Z,13.84
2022-09-30T09:08:46.882Z,14.05
2022-09-30T09:14:18.601Z,13.58
2022-09-30T09:19:50.449Z,14.28
2022-09-30T09:25:22.150Z,14.15
2022-09-30T09:30:53.934Z,14.1
2022-09-30T09:36:25.642Z,14.36
2022-09-30T09:42:01.725Z,14.18
2022-09-30T09:47:33.445Z,14.59
2022-09-30T09:53:05.150Z,14.6
2022-09-30T09:58:36.906Z,14.63
2022-09-30T10:04:08.578Z,14.94
2022-09-30T10:09:40.279Z,14.75
2022-09-30T10:15:12.091Z,14.99
2022-09-30T10:20:43.741Z,15.19
2022-09-30T10:26:15.563Z,15.7
2022-09-30T10:31:47.296Z,16.0
2022-09-30T10:37:19.105Z,15.96
2022-09-30T10:42:55.081Z,16.48
2022-09-30T10:48:26.813Z,15.76
2022-09-30T10:53:58.476Z,16.14
2022-09-30T10:59:30.621Z,16.58
2022-09-30T11:05:01.972Z,16.97
2022-09-30T11:10:33.729Z,16.95
2022-09-30T11:16:05.416Z,17.19
2022-09-30T11:21:37.132Z,17.2
2022-09-30T11:27:08.824Z,17.15
2022-09-30T11:32:40.513Z,17.32
2022-09-30T11:38:12.305Z,17.16
2022-09-30T11:43:48.391Z,17.67
2022-09-30T11:49:20.362Z,17.77
2022-09-30T11:54:51.858Z,17.65
2022-09-30T12:00:23.545Z,18.34
2022-09-30T12:05:55.297Z,18.66
2022-09-30T12:11:27.024Z,18.43
2022-09-30T12:16:58.894Z,18.47
2022-09-30T12:22:30.478Z,18.48
2022-09-30T12:28:02.221Z,19.11
2022-09-30T12:33:33.982Z,19.18
2022-09-30T12:39:05.728Z,18.88
2022-09-30T12:44:43.921Z,18.21
2022-09-30T12:50:15.697Z,18.05
2022-09-30T12:55:47.601Z,17.76
2022-09-30T13:01:19.174Z,18.06
2022-09-30T13:06:50.870Z,18.06
2022-09-30T13:12:22.559Z,18.2
2022-09-30T13:17:54.356Z,18.03
2022-09-30T13:23:26.110Z,18.02
2022-09-30T13:28:57.757Z,17.82
2022-09-30T13:34:29.473Z,17.67
2022-09-30T13:40:01.171Z,17.82
2022-09-30T13:45:39.392Z,18.15
2022-09-30T13:51:11.038Z,17.47
2022-09-30T13:56:42.704Z,17.65
2022-09-30T14:02:15.613Z,17.41
2022-09-30T14:07:46.213Z,17.66
2022-09-30T14:13:17.889Z,17.33
2022-09-30T14:18:49.569Z,17.48
2022-09-30T14:24:21.364Z,17.04
2022-09-30T14:29:53.099Z,17.25
2022-09-30T14:35:24.813Z,17.14
2022-09-30T14:40:56.525Z,17.36
2022-09-30T14:46:32.829Z,17.49
2022-09-30T14:52:04.406Z,17.37
2022-09-30T14:57:36.107Z,17.25
2022-09-30T15:03:07.978Z,17.12
2022-09-30T15:08:39.561Z,17.25
2022-09-30T15:14:11.277Z,17.23
2022-09-30T15:19:43.205Z,17.5
2022-09-30T15:25:14.772Z,17.66
2022-09-30T15:30:46.459Z,17.53
2022-09-30T15:36:18.699Z,17.68
2022-09-30T15:41:49.906Z,17.97
2022-09-30T15:47:26.022Z,18.08
2022-09-30T15:52:57.794Z,17.92
2022-09-30T15:58:29.512Z,17.92
2022-09-30T16:04:01.191Z,17.87
2022-09-30T16:09:33.026Z,17.76
2022-09-30T16:15:04.671Z,17.55
2022-09-30T16:20:36.367Z,17.44
2022-09-30T16:26:08.194Z,17.22
2022-09-30T16:31:40.116Z,17.02
2022-09-30T16:37:11.596Z,16.81
2022-09-30T16:42:43.277Z,16.62
2022-09-30T16:48:19.350Z,16.41
2022-09-30T16:53:51.138Z,16.2
2022-09-30T16:59:22.913Z,15.98
2022-09-30T17:04:54.636Z,15.79
2022-09-30T17:10:26.373Z,15.63
2022-09-30T17:15:58.084Z,15.43
2022-09-30T17:21:29.977Z,15.27
2022-09-30T17:27:01.629Z,15.14
2022-09-30T17:32:33.251Z,15.0
2022-09-30T17:38:05.010Z,14.91
2022-09-30T17:43:36.710Z,14.78
2022-09-30T17:49:12.841Z,14.67
2022-09-30T17:54:46.636Z,14.59
2022-09-30T18:00:16.286Z,14.4
2022-09-30T18:05:48.011Z,14.25
2022-09-30T18:11:19.696Z,14.16
2022-09-30T18:16:51.567Z,14.15
2022-09-30T18:22:23.177Z,14.1
2022-09-30T18:27:54.935Z,14.03
2022-09-30T18:33:26.743Z,13.81
2022-09-30T18:38:58.454Z,13.77
2022-09-30T18:44:30.173Z,13.7
2022-09-30T18:50:08.314Z,13.64
2022-09-30T18:55:40.013Z,13.51
2022-09-30T19:01:11.923Z,13.44
2022-09-30T19:06:43.507Z,13.27
2022-09-30T19:12:15.290Z,13.26
2022-09-30T19:17:47.084Z,13.27
2022-09-30T19:23:18.737Z,13.31
2022-09-30T19:28:50.440Z,13.26
2022-09-30T19:34:28.163Z,13.17
2022-09-30T19:39:53.877Z,13.13
2022-09-30T19:45:26.177Z,13.04
2022-09-30T19:51:03.729Z,12.97
2022-09-30T19:56:35.450Z,12.92
2022-09-30T20:02:07.217Z,12.83
2022-09-30T20:07:38.936Z,12.79
2022-09-30T20:13:10.722Z,12.72
2022-09-30T20:18:42.362Z,12.56
2022-09-30T20:24:14.181Z,12.58
2022-09-30T20:29:45.842Z,12.47
2022-09-30T20:35:17.627Z,12.42
2022-09-30T20:40:49.268Z,12.12
2022-09-30T20:46:21.047Z,12.09
2022-09-30T20:51:59.138Z,12.02
2022-09-30T20:57:30.985Z,11.86
2022-09-30T21:03:02.650Z,11.85
2022-09-30T21:08:34.319Z,11.82
2022-09-30T21:14:06.093Z,11.72
2022-09-30T21:19:37.856Z,11.58
2022-09-30T21:25:09.534Z,11.55
2022-09-30T21:30:41.299Z,11.54
2022-09-30T21:36:13.065Z,11.5
2022-09-30T21:41:44.762Z,11.47
2022-09-30T21:47:16.764Z,11.55
2022-09-30T21:52:54.895Z,11.55
2022-09-30T21:58:26.346Z,11.72
2022-09-30T22:03:58.106Z,11.62
2022-09-30T22:09:29.785Z,11.55
2022-09-30T22:15:01.506Z,11.22
2022-09-30T22:20:33.266Z,11.46
2022-09-30T22:26:05.014Z,11.7
2022-09-30T22:31:37.048Z,11.73
2022-09-30T22:37:08.465Z,11.78
2022-09-30T22:42:40.182Z,11.81
2022-09-30T22:48:11.918Z,11.83
2022-09-30T22:53:47.989Z,11.92
2022-09-30T22:59:19.689Z,11.94
2022-09-30T23:04:51.439Z,11.91
2022-09-30T23:10:23.157Z,11.89
2022-09-30T23:15:54.882Z,11.82
2022-09-30T23:21:26.605Z,11.8
2022-09-30T23:26:58.366Z,11.82
2022-09-30T23:32:30.061Z,11.85
2022-09-30T23:38:01.770Z,11.75
2022-09-30T23:43:33.494Z,11.75
2022-09-30T23:49:05.258Z,11.67
2022-09-30T23:54:41.719Z,11.62
